Time;durP1;ratioP1;P1;durP2;ratioP2;P2;SDS_P1;SDS_P2;PMS_P1;PMS_P2;Temp;Humidity;BMP_temperature;BMP_pressure;BME280_temperature;BME280_humidity;BME280_pressure;Samples;Min_cycle;Max_cycle;Signal;HPM_P1;HPM_P2
2021/05/07 00:01:09;;;;;;;2.47;0.80;;;4.80;99.90;;;4.51;92.56;100763.50;5075161;28;20534;-63
2021/05/07 00:03:36;;;;;;;2.15;1.20;;;4.80;99.90;;;4.44;92.51;100764.28;5058277;28;20028;-59
2021/05/07 00:06:04;;;;;;;1.67;1.17;;;4.80;99.90;;;4.38;93.10;100760.41;5076373;28;20166;-59
2021/05/07 00:08:36;;;;;;;3.70;0.90;;;4.80;99.90;;;4.32;93.91;100766.44;5058178;28;20035;-58
2021/05/07 00:11:09;;;;;;;1.35;1.25;;;4.70;99.90;;;4.30;93.76;100766.59;5076119;28;20159;-59
2021/05/07 00:13:36;;;;;;;2.50;1.13;;;4.70;99.90;;;4.31;94.20;100762.03;5075311;28;20114;-66
2021/05/07 00:16:02;;;;;;;1.80;1.10;;;4.70;99.90;;;4.41;93.91;100762.75;5075420;28;20427;-68
2021/05/07 00:18:28;;;;;;;2.03;0.80;;;4.70;99.90;;;4.45;93.86;100761.44;5074792;28;20040;-70
2021/05/07 00:20:54;;;;;;;2.13;1.20;;;4.70;99.90;;;4.58;93.49;100769.91;5058113;28;20071;-69
2021/05/07 00:23:20;;;;;;;2.47;1.10;;;4.80;99.90;;;4.66;93.30;100755.59;5074838;28;20025;-67
2021/05/07 00:25:47;;;;;;;2.38;1.08;;;4.90;99.90;;;4.72;93.17;100763.88;5074820;28;20095;-67
2021/05/07 00:28:15;;;;;;;2.63;1.13;;;5.10;99.90;;;4.82;92.66;100757.50;5075006;28;20044;-68
2021/05/07 00:30:41;;;;;;;4.78;1.30;;;5.10;99.90;;;4.89;92.80;100769.31;5058425;28;20032;-66
2021/05/07 00:33:08;;;;;;;4.45;1.48;;;5.10;99.90;;;4.99;92.94;100770.00;5074501;28;20040;-68
2021/05/07 00:35:35;;;;;;;5.32;1.00;;;5.20;99.90;;;5.02;92.55;100772.38;5074613;28;20108;-67
2021/05/07 00:38:02;;;;;;;4.97;1.20;;;5.30;99.90;;;5.22;92.15;100778.28;5058080;28;20036;-65
2021/05/07 00:40:29;;;;;;;3.78;1.20;;;5.40;99.90;;;5.33;91.49;100777.94;5057737;28;20036;-60
2021/05/07 00:42:55;;;;;;;1.02;0.82;;;5.50;99.90;;;5.43;91.60;100776.78;5076028;28;20188;-60
2021/05/07 00:45:22;;;;;;;4.47;1.10;;;5.60;99.90;;;5.64;90.51;100787.09;5057812;28;20056;-62
2021/05/07 00:47:59;;;;;;;2.50;0.90;;;5.70;99.90;;;5.73;90.14;100779.81;5074592;28;20037;-61
2021/05/07 00:50:36;;;;;;;2.53;1.00;;;5.80;99.90;;;5.83;89.92;100775.06;5074234;28;20108;-59
2021/05/07 00:53:04;;;;;;;1.45;0.95;;;5.90;99.90;;;5.86;89.79;100785.53;5057533;28;20032;-62
2021/05/07 00:55:32;;;;;;;1.73;1.02;;;6.00;99.90;;;6.02;89.25;100784.69;5057807;28;20507;-62
2021/05/07 00:57:59;;;;;;;5.05;1.48;;;6.10;99.90;;;6.04;89.32;100778.09;5074185;28;20032;-63
2021/05/07 01:00:29;;;;;;;2.85;1.13;;;6.20;99.90;;;6.16;88.15;100765.91;5074548;28;20039;-58
2021/05/07 01:02:55;;;;;;;3.90;1.10;;;6.20;99.90;;;6.29;87.18;100781.56;5057967;28;20028;-60
2021/05/07 01:05:22;;;;;;;1.92;0.90;;;6.30;99.90;;;6.40;85.36;100774.94;5057360;28;20115;-63
2021/05/07 01:07:49;;;;;;;1.38;0.68;;;6.30;99.90;;;6.47;83.19;100775.91;5057864;28;20036;-65
2021/05/07 01:10:16;;;;;;;1.42;0.38;;;6.40;99.90;;;6.52;79.79;100770.84;5073836;28;20048;-61
2021/05/07 01:12:42;;;;;;;1.63;0.50;;;6.40;99.90;;;6.54;79.45;100774.22;5075245;28;20064;-60
2021/05/07 01:15:31;;;;;;;0.95;0.60;;;6.50;99.90;;;6.51;78.22;100777.25;5057327;28;20036;-64
2021/05/07 01:17:58;;;;;;;2.28;0.60;;;6.50;99.90;;;6.55;77.82;100782.13;5074123;28;20048;-62
2021/05/07 01:20:30;;;;;;;1.70;0.75;;;6.50;99.90;;;6.63;77.71;100789.38;5073840;28;20111;-61
2021/05/07 01:23:06;;;;;;;0.90;0.50;;;6.60;99.90;;;6.63;75.98;100789.38;5090513;28;20395;-65
2021/05/07 01:25:37;;;;;;;1.50;0.75;;;6.50;99.20;;;6.74;75.80;100790.84;5074085;28;20078;-61
2021/05/07 01:28:07;;;;;;;1.38;0.57;;;6.50;99.00;;;6.70;75.69;100794.91;5057120;28;20024;-61
2021/05/07 01:30:36;;;;;;;1.27;0.60;;;6.50;98.90;;;6.85;75.90;100799.41;5073604;28;20033;-64
2021/05/07 01:33:03;;;;;;;3.53;0.70;;;6.60;99.20;;;6.71;77.49;100797.44;5073608;28;20039;-64
2021/05/07 01:35:34;;;;;;;3.75;0.80;;;6.60;99.70;;;6.65;78.59;100797.31;5056880;28;20037;-65
2021/05/07 01:38:12;;;;;;;0.98;0.80;;;6.50;99.90;;;6.46;80.95;100803.97;5073385;28;20086;-63
2021/05/07 01:40:41;;;;;;;2.28;0.90;;;6.50;99.90;;;6.43;82.02;100796.22;5073359;28;20025;-64
2021/05/07 01:43:07;;;;;;;1.15;0.65;;;6.40;99.90;;;6.44;82.57;100806.84;5073381;28;20024;-63
2021/05/07 01:45:37;;;;;;;3.22;0.60;;;6.40;99.90;;;6.44;82.90;100797.88;5073376;28;20036;-64
2021/05/07 01:48:05;;;;;;;1.50;0.75;;;6.30;99.90;;;6.28;83.48;100781.75;5073448;28;20047;-62
2021/05/07 01:50:34;;;;;;;3.90;1.13;;;6.30;99.90;;;6.21;83.51;100775.34;5056937;28;20111;-62
2021/05/07 01:53:00;;;;;;;2.90;1.17;;;6.30;99.90;;;5.98;85.61;100784.16;5056803;28;20082;-63
2021/05/07 01:55:33;;;;;;;2.50;0.73;;;6.20;99.90;;;6.00;85.32;100782.13;5073154;28;20051;-63
2021/05/07 01:58:01;;;;;;;1.52;0.70;;;6.20;99.90;;;5.99;84.94;100779.59;5072947;28;20220;-64
2021/05/07 02:00:29;;;;;;;1.27;0.60;;;6.20;99.90;;;5.96;85.44;100774.56;5056881;28;20036;-63
2021/05/07 02:02:57;;;;;;;0.77;0.68;;;6.10;99.90;;;6.02;85.32;100769.31;5073140;28;20494;-62
2021/05/07 02:05:26;;;;;;;0.98;0.65;;;6.20;99.90;;;5.93;86.44;100759.53;5072631;28;20394;-61
2021/05/07 02:07:52;;;;;;;1.77;1.23;;;6.10;99.90;;;5.64;87.33;100764.63;5072970;28;20032;-62
2021/05/07 02:10:23;;;;;;;0.50;0.50;;;6.00;99.90;;;5.42;88.18;100772.38;5056170;28;20055;-62
2021/05/07 02:12:51;;;;;;;0.60;0.60;;;5.90;99.90;;;5.47;88.76;100772.72;5072658;28;20103;-59
2021/05/07 02:15:19;;;;;;;1.98;0.70;;;5.80;99.90;;;5.54;88.51;100780.97;5039689;28;20028;-59
2021/05/07 02:17:45;;;;;;;2.05;1.10;;;5.80;99.90;;;5.49;89.10;100791.47;5072777;28;20142;-59
2021/05/07 02:20:14;;;;;;;2.90;0.80;;;5.80;99.90;;;5.44;88.89;100791.97;5072650;28;20067;-59
2021/05/07 02:22:41;;;;;;;1.88;0.75;;;5.70;99.90;;;5.44;88.86;100796.50;5056232;28;20128;-58
2021/05/07 02:25:09;;;;;;;1.02;0.82;;;5.70;99.90;;;5.38;89.68;100802.59;5039717;28;20097;-59
2021/05/07 02:27:35;;;;;;;1.95;0.63;;;5.70;99.90;;;5.39;89.67;100815.94;5072581;28;20043;-59
2021/05/07 02:30:01;;;;;;;1.75;0.57;;;5.70;99.90;;;5.42;89.64;100814.72;5072346;28;20029;-59
2021/05/07 02:32:27;;;;;;;0.93;0.60;;;5.70;99.90;;;5.43;89.54;100821.81;5072659;28;20107;-58
2021/05/07 02:34:53;;;;;;;0.88;0.60;;;5.70;99.90;;;5.33;90.04;100816.59;5072495;28;20032;-60
2021/05/07 02:37:19;;;;;;;1.85;0.80;;;5.60;99.90;;;5.39;90.09;100823.19;5055512;28;20036;-58
2021/05/07 02:39:44;;;;;;;3.20;0.80;;;5.60;99.90;;;5.30;90.21;100825.03;5055600;28;20483;-59
2021/05/07 02:42:10;;;;;;;0.93;0.60;;;5.60;99.90;;;5.26;90.22;100826.38;5072419;28;20458;-60
2021/05/07 02:44:36;;;;;;;0.93;0.93;;;5.70;99.90;;;5.39;90.21;100829.44;5073758;28;20510;-60
2021/05/07 02:47:05;;;;;;;0.70;0.70;;;5.60;99.90;;;5.32;89.81;100831.09;5039382;28;20443;-60
2021/05/07 02:49:35;;;;;;;0.95;0.60;;;5.60;99.90;;;5.35;90.46;100836.16;5056558;28;20387;-59
2021/05/07 02:52:02;;;;;;;4.43;0.80;;;5.60;99.90;;;5.31;90.41;100834.78;5055298;28;20100;-59
2021/05/07 02:54:30;;;;;;;2.10;0.75;;;5.60;99.90;;;5.40;90.17;100849.16;5072067;28;20499;-60
2021/05/07 02:56:56;;;;;;;1.20;0.88;;;5.60;99.90;;;5.32;90.21;100847.28;5072009;28;20045;-61
2021/05/07 02:59:23;;;;;;;1.15;0.98;;;5.50;99.90;;;5.30;90.63;100854.72;5073083;28;20041;-59
2021/05/07 03:01:50;;;;;;;0.77;0.77;;;5.50;99.90;;;5.40;90.41;100860.81;5039050;28;20040;-61
2021/05/07 03:04:18;;;;;;;0.63;0.63;;;5.50;99.90;;;5.33;90.65;100851.66;5071927;28;20643;-61
2021/05/07 03:06:45;;;;;;;0.98;0.98;;;5.50;99.90;;;5.30;91.09;100864.66;5055739;28;20040;-61
2021/05/07 03:09:11;;;;;;;1.05;0.95;;;5.50;99.90;;;5.39;91.31;100863.66;5072967;28;20041;-62
2021/05/07 03:11:38;;;;;;;0.85;0.85;;;5.40;99.90;;;5.33;91.45;100870.56;5072023;28;20040;-61
2021/05/07 03:14:04;;;;;;;3.75;1.30;;;5.40;99.90;;;5.37;91.38;100876.47;5071693;28;20028;-60
2021/05/07 03:16:30;;;;;;;1.88;0.98;;;5.50;99.90;;;5.31;91.74;100882.53;5071190;28;20047;-60
2021/05/07 03:18:56;;;;;;;2.05;1.38;;;5.50;99.90;;;5.25;92.25;100892.13;5072737;28;20395;-60
2021/05/07 03:21:23;;;;;;;1.17;1.08;;;5.50;99.90;;;5.27;91.91;100884.72;5054997;28;20506;-61
2021/05/07 03:23:49;;;;;;;4.80;1.25;;;5.50;99.90;;;5.19;92.00;100895.50;5071734;28;20044;-59
2021/05/07 03:26:15;;;;;;;0.98;0.98;;;5.50;99.90;;;5.06;92.60;100900.53;5071682;28;20037;-60
2021/05/07 03:28:40;;;;;;;2.28;0.90;;;5.40;99.90;;;4.92;93.87;100898.44;5055018;28;20120;-62
2021/05/07 03:31:07;;;;;;;1.00;0.82;;;5.40;99.90;;;4.72;94.47;100896.00;5054922;28;20112;-59
2021/05/07 03:33:34;;;;;;;1.58;1.10;;;5.30;99.90;;;4.63;94.70;100904.19;5038782;28;20063;-59
2021/05/07 03:36:00;;;;;;;0.73;0.70;;;5.10;99.90;;;4.54;95.27;100911.38;5071654;28;20052;-58
2021/05/07 03:38:26;;;;;;;1.10;1.00;;;5.00;99.90;;;4.50;95.21;100910.03;5054948;28;20040;-60
2021/05/07 03:40:52;;;;;;;2.65;1.27;;;5.00;99.90;;;4.45;95.10;100906.97;5071535;28;20029;-60
2021/05/07 03:43:18;;;;;;;4.85;1.08;;;4.90;99.90;;;4.42;94.34;100918.06;5072581;28;20075;-59
2021/05/07 03:45:44;;;;;;;1.83;1.08;;;4.80;99.90;;;4.38;94.42;100911.31;5071145;28;20436;-60
2021/05/07 03:48:20;;;;;;;1.85;1.05;;;4.70;99.90;;;4.44;93.47;100920.59;5072539;28;20043;-62
2021/05/07 03:50:50;;;;;;;3.35;1.17;;;4.60;99.90;;;4.30;94.27;100930.94;5071161;28;20478;-65
2021/05/07 03:53:17;;;;;;;2.97;0.88;;;4.60;99.90;;;4.29;94.68;100933.78;5054435;28;20467;-59
2021/05/07 03:55:44;;;;;;;3.15;1.05;;;4.50;99.90;;;4.15;95.23;100937.06;5071171;28;20070;-58
2021/05/07 03:58:10;;;;;;;1.83;1.17;;;4.40;99.90;;;4.13;95.37;100939.06;5054616;28;20039;-60
2021/05/07 04:00:37;;;;;;;1.90;1.23;;;4.40;99.90;;;4.04;96.77;100940.00;5071729;28;20403;-62
2021/05/07 04:03:04;;;;;;;3.10;1.25;;;4.30;99.90;;;3.99;97.93;100938.63;5054658;28;20439;-63
2021/05/07 04:05:30;;;;;;;6.63;1.30;;;4.20;99.90;;;4.05;97.28;100937.16;5071804;28;20112;-61
2021/05/07 04:08:19;;;;;;;1.27;1.05;;;4.20;99.90;;;4.01;97.50;100947.41;5054520;28;20506;-59
2021/05/07 04:10:56;;;;;;;1.27;1.17;;;4.20;99.90;;;4.13;97.78;100949.84;5057261;28;20041;-61
2021/05/07 04:15:57;;;;;;;2.67;1.15;;;4.20;99.90;;;4.17;98.15;100956.63;5071723;28;20098;-62
2021/05/07 04:18:23;;;;;;;2.63;1.13;;;4.10;99.90;;;4.13;99.11;100961.47;5071206;28;20179;-62
2021/05/07 04:20:49;;;;;;;1.17;1.08;;;4.20;99.90;;;4.20;99.47;100962.53;5071334;28;20028;-63
2021/05/07 04:23:14;;;;;;;1.40;1.30;;;4.20;99.90;;;4.28;99.11;100972.53;5072025;28;20037;-63
2021/05/07 04:25:40;;;;;;;1.73;0.98;;;4.20;99.90;;;4.41;99.74;100970.25;5070891;28;20086;-58
2021/05/07 04:28:06;;;;;;;2.80;1.30;;;4.40;99.90;;;4.42;99.67;100976.50;5071467;28;20508;-58
2021/05/07 04:30:32;;;;;;;1.92;1.00;;;4.40;99.90;;;4.57;100.00;100973.06;5075966;28;20372;-62
2021/05/07 04:32:59;;;;;;;1.25;1.10;;;4.50;99.90;;;4.71;99.49;100983.28;5075815;28;20439;-61
2021/05/07 04:35:25;;;;;;;2.55;1.30;;;4.50;99.90;;;4.79;99.96;100989.72;5074909;28;20082;-60
2021/05/07 04:37:51;;;;;;;1.80;1.08;;;4.70;99.90;;;4.89;100.00;100985.06;5075826;28;20032;-59
2021/05/07 04:40:17;;;;;;;2.58;0.93;;;4.80;99.90;;;4.91;100.00;100993.84;5075568;28;20041;-58
2021/05/07 04:42:43;;;;;;;2.08;1.20;;;4.90;99.90;;;4.99;100.00;100996.56;5075691;28;20040;-59
2021/05/07 04:45:10;;;;;;;1.90;1.48;;;5.00;99.90;;;5.04;99.88;100997.78;5057773;28;20450;-59
2021/05/07 04:47:36;;;;;;;1.20;1.10;;;5.00;99.90;;;5.08;100.00;100995.59;5074463;28;20029;-60
2021/05/07 04:50:05;;;;;;;2.78;1.75;;;5.10;99.90;;;5.19;99.79;100997.19;5074379;28;20548;-61
2021/05/07 04:52:31;;;;;;;1.42;1.27;;;5.10;99.90;;;5.23;99.95;100999.41;5074303;28;20037;-60
2021/05/07 04:54:57;;;;;;;2.40;1.15;;;5.30;99.90;;;5.47;100.00;101006.75;5074206;28;20064;-60
2021/05/07 04:57:25;;;;;;;1.30;1.20;;;5.40;99.90;;;6.61;100.00;101002.34;5074470;28;20032;-59
2021/05/07 04:59:51;;;;;;;3.67;1.30;;;5.90;99.90;;;8.32;96.62;101003.28;5075893;28;20040;-60
2021/05/07 05:02:17;;;;;;;3.03;1.00;;;6.80;99.90;;;10.28;89.44;101008.06;5074634;28;20427;-60
2021/05/07 05:04:43;;;;;;;1.13;1.00;;;8.10;99.90;;;12.14;80.73;101013.66;5074122;28;20043;-59
2021/05/07 05:07:09;;;;;;;2.65;1.00;;;9.60;99.90;;;13.81;73.38;101012.22;5041028;28;20036;-59
2021/05/07 05:09:35;;;;;;;2.45;1.15;;;11.10;99.90;;;15.22;62.96;101015.44;5073901;28;20491;-60
2021/05/07 05:12:01;;;;;;;4.20;0.75;;;12.50;99.90;;;16.95;57.70;101016.44;5075217;28;20086;-61
2021/05/07 05:14:27;;;;;;;1.58;0.98;;;13.90;99.90;;;17.91;46.40;101033.50;5074073;28;20076;-59
2021/05/07 05:16:52;;;;;;;3.35;0.80;;;15.20;96.40;;;18.44;45.28;101025.72;5057286;28;20403;-62
2021/05/07 05:19:18;;;;;;;1.90;1.15;;;16.20;93.90;;;18.25;43.87;101038.03;5041436;28;20036;-62
2021/05/07 05:21:44;;;;;;;2.15;1.13;;;16.70;92.20;;;18.16;42.56;101039.50;5074128;28;20037;-61
2021/05/07 05:24:10;;;;;;;1.30;1.00;;;17.00;90.80;;;18.01;41.92;101037.28;5057252;28;20131;-61
2021/05/07 05:26:36;;;;;;;2.40;1.08;;;17.00;90.20;;;17.55;41.38;101045.63;5075148;28;20090;-60
2021/05/07 05:29:02;;;;;;;2.90;1.60;;;17.10;87.40;;;16.76;43.51;101053.38;5073637;28;20116;-62
2021/05/07 05:31:28;;;;;;;1.48;1.17;;;16.70;87.50;;;15.94;45.14;101049.44;5074829;28;20090;-60
2021/05/07 05:33:53;;;;;;;2.38;1.20;;;16.20;87.70;;;15.30;47.09;101053.53;5040292;28;20039;-59
2021/05/07 05:36:21;;;;;;;3.38;1.20;;;15.60;88.60;;;15.04;50.17;101057.34;5056859;28;20044;-63
2021/05/07 05:38:47;;;;;;;1.83;1.20;;;15.20;90.70;;;16.41;48.01;101053.25;5073774;28;20087;-60
2021/05/07 05:41:12;;;;;;;1.70;1.30;;;15.50;91.60;;;17.69;43.33;101058.09;5073772;28;20379;-61
2021/05/07 05:43:38;;;;;;;3.33;1.58;;;16.20;90.60;;;18.61;41.01;101052.50;5073488;28;20039;-60
2021/05/07 05:46:04;;;;;;;4.40;1.83;;;16.90;89.50;;;20.00;37.27;101055.19;5056715;28;20115;-60
2021/05/07 05:48:30;;;;;;;10.63;2.17;;;18.00;86.50;;;21.59;34.53;101068.34;5073352;28;20045;-61
2021/05/07 05:50:56;;;;;;;3.55;1.30;;;19.10;84.90;;;23.26;31.65;101070.75;5073854;28;20064;-60
2021/05/07 05:53:22;;;;;;;3.28;1.75;;;20.40;81.70;;;24.94;28.80;101074.59;5039953;28;20106;-61
2021/05/07 05:55:48;;;;;;;1.70;1.30;;;21.90;78.60;;;26.49;26.66;101080.75;5056787;28;20025;-61
2021/05/07 05:58:14;;;;;;;4.03;1.65;;;23.20;75.60;;;27.23;25.49;101087.41;5073292;28;20090;-62
2021/05/07 06:00:40;;;;;;;4.28;1.52;;;24.30;72.60;;;27.94;23.96;101093.69;5073119;28;20116;-63
2021/05/07 06:03:06;;;;;;;3.35;1.05;;;25.30;68.50;;;28.77;21.38;101086.84;5073370;28;20041;-61
2021/05/07 06:05:32;;;;;;;1.48;0.90;;;26.10;64.10;;;29.46;20.01;101088.22;5056339;28;20420;-62
2021/05/07 06:07:58;;;;;;;4.18;1.10;;;26.90;60.30;;;28.76;20.12;101102.00;5072849;28;20041;-61
2021/05/07 06:10:24;;;;;;;4.60;0.93;;;27.20;57.40;;;29.08;18.94;101104.63;5073922;28;20055;-61
2021/05/07 06:12:50;;;;;;;1.92;0.60;;;27.30;56.10;;;29.29;17.86;101109.72;5056342;28;20517;-63
2021/05/07 06:15:18;;;;;;;4.22;0.70;;;27.50;53.50;;;28.95;17.92;101111.09;5056006;28;20048;-68
2021/05/07 06:17:45;;;;;;;1.92;0.77;;;27.60;52.10;;;28.01;18.26;101116.50;5073674;28;20479;-61
2021/05/07 06:20:13;;;;;;;1.42;0.60;;;27.30;50.70;;;27.51;18.84;101113.50;5072599;28;20106;-64
2021/05/07 06:22:39;;;;;;;1.60;0.60;;;26.90;50.60;;;26.58;19.43;101115.25;5073268;28;20032;-62
2021/05/07 06:25:09;;;;;;;1.00;0.50;;;26.40;49.90;;;27.06;20.18;101121.53;5072578;28;20475;-70
2021/05/07 06:27:36;;;;;;;1.73;0.50;;;26.00;51.40;;;26.45;19.29;101129.09;5072150;28;20057;-68
2021/05/07 06:30:07;;;;;;;2.63;0.68;;;25.90;49.70;;;27.15;18.88;101132.84;5055876;28;20028;-67
2021/05/07 06:32:32;;;;;;;2.10;0.60;;;26.00;50.20;;;26.83;19.79;101138.34;5072584;28;20032;-67
2021/05/07 06:34:58;;;;;;;2.10;0.80;;;25.90;50.40;;;26.06;20.01;101141.28;5072728;28;20021;-69
2021/05/07 06:37:24;;;;;;;1.67;0.55;;;25.70;49.80;;;25.69;19.87;101136.38;5055650;28;20128;-68
2021/05/07 06:39:51;;;;;;;1.25;0.63;;;25.50;49.10;;;26.14;19.75;101132.25;5055832;28;20494;-72
2021/05/07 06:42:18;;;;;;;3.35;1.00;;;25.30;49.70;;;27.78;18.63;101147.16;5055718;28;20036;-68
2021/05/07 06:44:45;;;;;;;1.48;0.50;;;25.80;49.80;;;28.18;19.03;101150.34;5073604;28;20051;-68
2021/05/07 06:47:10;;;;;;;2.25;0.80;;;26.40;50.40;;;26.42;19.99;101152.88;5055496;28;20039;-68
2021/05/07 06:49:36;;;;;;;2.13;0.60;;;26.20;48.80;;;26.52;19.81;101158.34;5072278;28;20060;-69
2021/05/07 06:52:04;;;;;;;1.90;0.68;;;25.90;49.10;;;28.38;17.52;101169.53;5055460;28;20083;-68
2021/05/07 06:54:30;;;;;;;2.17;0.80;;;26.70;48.30;;;28.22;17.68;101159.75;5055448;28;20044;-68
2021/05/07 06:56:59;;;;;;;3.00;0.60;;;26.80;47.60;;;27.68;18.67;101166.91;5072228;28;20029;-69
2021/05/07 06:59:26;;;;;;;3.03;0.70;;;26.70;48.20;;;29.57;17.17;101170.19;5073126;28;20759;-69
2021/05/07 07:01:52;;;;;;;2.65;0.70;;;27.60;48.40;;;29.21;18.44;101164.59;5071902;28;20029;-69
2021/05/07 07:04:18;;;;;;;0.98;0.50;;;27.80;49.40;;;29.49;17.15;101177.38;5072000;28;20033;-69
2021/05/07 07:06:44;;;;;;;1.80;0.82;;;28.20;47.60;;;27.67;18.62;101187.63;5056294;28;20040;-76
2021/05/07 07:09:14;;;;;;;1.45;0.63;;;27.60;47.30;;;27.90;18.45;101185.00;5056402;28;20372;-75
2021/05/07 07:11:40;;;;;;;3.45;0.70;;;27.30;47.40;;;26.77;20.45;101185.91;5059778;28;20035;-83
2021/05/07 07:14:06;;;;;;;4.75;1.20;;;26.50;48.80;;;26.11;20.66;101194.25;5058216;28;20036;-73
2021/05/07 07:16:33;;;;;;;2.05;0.73;;;26.00;48.90;;;24.08;23.26;101205.78;5073542;28;20087;-75
2021/05/07 07:19:00;;;;;;;1.83;0.70;;;24.90;49.20;;;22.78;25.10;101201.53;5071761;28;20029;-61
2021/05/07 07:21:26;;;;;;;2.72;0.95;;;23.60;51.00;;;23.13;25.91;101205.50;5073535;28;20035;-81
2021/05/07 07:23:52;;;;;;;2.88;1.27;;;23.10;53.50;;;24.33;24.59;101202.13;5039618;28;20028;-73
2021/05/07 07:26:18;;;;;;;3.85;1.40;;;23.40;53.60;;;26.06;23.24;101202.69;5071806;28;20043;-71
2021/05/07 07:28:47;;;;;;;4.75;1.10;;;24.20;53.60;;;26.50;21.86;101212.81;5073057;28;20029;-79
2021/05/07 07:31:13;;;;;;;4.72;1.40;;;24.90;52.20;;;26.67;20.42;101214.00;5074354;28;20025;-76
2021/05/07 07:33:39;;;;;;;3.28;1.20;;;25.50;49.40;;;26.76;19.86;101222.53;5072495;28;20037;-60
2021/05/07 07:36:05;;;;;;;1.08;0.77;;;26.00;48.70;;;25.22;21.84;101227.06;5056173;28;20117;-62
2021/05/07 07:38:31;;;;;;;3.70;1.13;;;25.40;48.90;;;24.30;24.14;101236.09;5071661;28;20036;-63
2021/05/07 07:40:57;;;;;;;3.75;1.52;;;24.60;51.10;;;25.31;23.88;101230.06;5055045;28;20047;-64
2021/05/07 07:43:23;;;;;;;3.42;1.00;;;24.40;52.90;;;26.26;21.51;101240.72;5071527;28;20114;-60
2021/05/07 07:45:49;;;;;;;1.75;0.75;;;25.10;50.10;;;24.77;22.58;101247.63;5072790;28;20029;-65
2021/05/07 07:48:15;;;;;;;1.73;0.80;;;24.80;49.70;;;22.60;25.33;101246.38;5072797;28;20036;-61
2021/05/07 07:50:41;;;;;;;3.85;1.40;;;23.80;50.60;;;22.40;26.34;101251.84;5071670;28;20068;-64
2021/05/07 07:53:08;;;;;;;3.75;1.42;;;22.90;52.60;;;23.72;25.01;101253.09;5071716;28;20025;-61
2021/05/07 07:55:34;;;;;;;6.50;1.60;;;22.90;53.50;;;22.17;25.01;101263.34;5071985;28;20024;-61
2021/05/07 07:58:00;;;;;;;1.92;1.13;;;22.70;51.30;;;21.21;27.61;101266.94;5071703;28;20040;-62
2021/05/07 08:00:26;;;;;;;2.33;1.05;;;21.90;53.20;;;21.40;28.48;101269.31;5055296;28;20506;-66
2021/05/07 08:02:52;;;;;;;2.78;1.00;;;21.30;55.20;;;22.20;26.65;101274.75;5071925;28;20071;-67
2021/05/07 08:05:18;;;;;;;3.60;1.10;;;21.70;54.70;;;21.54;27.48;101276.13;5077141;28;20406;-65
2021/05/07 08:07:45;;;;;;;3.53;1.20;;;21.50;54.30;;;21.56;27.19;101279.44;5075545;28;20032;-62
2021/05/07 08:10:14;;;;;;;3.28;1.17;;;21.30;54.40;;;21.57;28.14;101290.25;5075472;28;20560;-74
2021/05/07 08:12:41;;;;;;;2.83;0.95;;;21.20;55.70;;;22.07;28.60;101291.84;5075194;28;20025;-66
2021/05/07 08:15:08;;;;;;;2.17;1.48;;;21.30;56.70;;;23.62;26.42;101293.97;5076669;28;20032;-62
2021/05/07 08:17:34;;;;;;;1.80;1.30;;;22.20;56.20;;;23.32;26.30;101295.56;5074818;28;20115;-62
2021/05/07 08:20:00;;;;;;;3.85;1.10;;;22.60;55.20;;;22.06;26.55;101296.56;5075074;28;20122;-60
2021/05/07 08:22:26;;;;;;;3.17;0.93;;;22.20;53.00;;;23.45;27.22;101302.53;5076439;28;20115;-61
2021/05/07 08:24:52;;;;;;;1.63;0.90;;;22.50;56.10;;;24.66;23.64;101307.25;5058111;28;20498;-62
2021/05/07 08:27:20;;;;;;;2.10;1.08;;;23.50;53.50;;;25.63;25.33;101300.13;5058291;28;20033;-63
2021/05/07 08:29:47;;;;;;;3.97;1.10;;;24.00;55.70;;;26.86;21.29;101317.44;5076047;28;20028;-64
2021/05/07 08:32:13;;;;;;;2.70;1.38;;;25.20;52.20;;;24.45;23.61;101319.56;5058102;28;20032;-64
2021/05/07 08:34:42;;;;;;;1.30;0.90;;;24.70;51.40;;;25.00;25.78;101312.19;5075939;28;20032;-64
2021/05/07 08:37:09;;;;;;;2.90;1.20;;;24.50;54.80;;;27.94;21.13;101320.41;5091486;28;20398;-64
2021/05/07 08:39:36;;;;;;;3.38;1.30;;;25.80;52.60;;;27.01;21.45;101325.63;5075790;28;20082;-65
2021/05/07 08:42:10;;;;;;;3.28;1.73;;;26.10;51.00;;;23.40;24.70;101317.25;5074619;28;20032;-63
2021/05/07 08:44:36;;;;;;;1.58;1.20;;;25.00;49.10;;;21.67;27.00;101337.47;5075190;28;20037;-63
2021/05/07 08:47:02;;;;;;;2.38;1.13;;;23.40;51.50;;;20.39;28.52;101336.13;5075823;28;20479;-61
2021/05/07 08:49:29;;;;;;;5.03;1.40;;;22.00;52.90;;;20.82;29.28;101335.34;5076128;28;20563;-63
2021/05/07 08:51:56;;;;;;;6.30;1.70;;;21.30;55.00;;;22.52;28.11;101335.72;5074992;28;20032;-60
2021/05/07 08:54:22;;;;;;;1.85;1.20;;;21.70;56.60;;;21.86;28.19;101337.94;5057866;28;20033;-64
2021/05/07 08:56:50;;;;;;;2.25;1.10;;;21.60;55.50;;;20.16;29.74;101352.84;5074415;28;20036;-65
2021/05/07 08:59:15;;;;;;;5.82;1.33;;;21.10;54.70;;;19.67;31.62;101357.22;5057593;28;20036;-66
2021/05/07 09:01:48;;;;;;;3.30;1.60;;;20.30;56.70;;;21.37;30.93;101348.22;5074221;28;20047;-63
2021/05/07 09:04:18;;;;;;;4.15;1.45;;;20.50;59.00;;;23.10;27.17;101356.03;5074379;28;20029;-65
2021/05/07 09:06:51;;;;;;;1.50;1.20;;;21.80;56.90;;;23.13;27.30;101361.06;5074322;28;20028;-67
2021/05/07 09:09:24;;;;;;;2.47;1.80;;;22.30;55.80;;;24.57;24.87;101364.66;5058167;28;20499;-67
2021/05/07 09:11:51;;;;;;;2.30;1.43;;;23.10;54.50;;;26.52;23.12;101361.38;5075546;28;20040;-67
2021/05/07 09:14:17;;;;;;;4.05;1.63;;;24.30;54.80;;;26.92;23.12;101363.75;5074499;28;20037;-61
2021/05/07 09:17:09;;;;;;;1.88;0.98;;;25.20;53.90;;;29.70;19.56;101374.16;5073454;28;20075;-61
2021/05/07 09:19:35;;;;;;;3.45;1.48;;;27.30;52.50;;;28.19;20.67;101376.00;5071449;28;20041;-66
2021/05/07 09:22:01;;;;;;;3.05;1.13;;;27.40;50.60;;;25.16;22.68;101383.47;5075321;28;20356;-67
2021/05/07 09:25:08;;;;;;;1.15;1.02;;;26.50;49.00;;;22.62;26.56;101390.44;5073978;28;20041;-62
2021/05/07 09:27:35;;;;;;;3.45;1.45;;;24.50;52.20;;;23.87;26.21;101394.09;5046695;28;20048;-64
2021/05/07 09:30:03;;;;;;;4.03;2.20;;;23.90;54.30;;;22.21;29.10;101397.63;5073922;28;20048;-61
2021/05/07 09:32:35;;;;;;;5.47;2.00;;;23.20;54.60;;;23.27;27.15;101406.66;5073626;28;20043;-61
2021/05/07 09:35:14;;;;;;;3.15;1.55;;;22.90;55.00;;;21.93;28.61;101407.03;5040335;28;20391;-62
2021/05/07 09:37:41;;;;;;;2.55;1.30;;;22.50;54.90;;;22.84;29.29;101412.53;5056766;28;20044;-64
2021/05/07 09:40:19;;;;;;;2.08;1.38;;;22.40;57.40;;;24.05;24.26;101413.03;5056903;28;20403;-62
2021/05/07 09:42:47;;;;;;;4.13;1.90;;;22.90;54.10;;;24.67;24.12;101425.03;5073600;28;20570;-62
2021/05/07 09:45:25;;;;;;;2.88;2.05;;;23.50;53.10;;;23.89;25.32;101425.25;5073686;28;20116;-61
2021/05/07 09:47:53;;;;;;;7.00;2.10;;;23.20;53.30;;;22.95;26.91;101422.59;5074477;28;20094;-63
2021/05/07 09:50:31;;;;;;;4.82;1.75;;;22.60;54.60;;;24.60;26.29;101447.63;5073325;28;20029;-61
2021/05/07 09:53:12;;;;;;;2.00;1.67;;;23.00;56.00;;;26.41;24.25;101438.84;5073148;28;20040;-63
2021/05/07 09:55:39;;;;;;;5.55;2.50;;;24.40;55.10;;;27.01;21.87;101437.44;5057110;28;20087;-64
2021/05/07 09:58:05;;;;;;;3.45;1.75;;;25.60;52.00;;;28.75;21.61;101456.28;5074301;28;20028;-64
2021/05/07 10:00:31;;;;;;;2.08;1.80;;;26.40;53.60;;;27.66;19.83;101442.53;5056532;28;20032;-63
2021/05/07 10:02:58;;;;;;;2.80;1.98;;;27.20;49.00;;;28.73;19.53;101450.16;5072932;28;20036;-62
2021/05/07 10:05:24;;;;;;;2.75;1.65;;;27.50;49.20;;;30.15;19.02;101450.06;5056111;28;20131;-67
2021/05/07 10:07:51;;;;;;;2.42;1.88;;;27.90;50.30;;;30.61;18.23;101458.22;5074251;28;20043;-63
2021/05/07 10:10:17;;;;;;;2.78;1.88;;;28.60;50.30;;;29.86;18.95;101456.91;5056133;28;20076;-62
2021/05/07 10:12:46;;;;;;;3.45;1.90;;;28.30;49.70;;;30.73;17.98;101461.28;5074228;28;20064;-62
2021/05/07 10:15:12;;;;;;;3.28;1.95;;;28.80;49.20;;;31.70;17.32;101465.09;5056390;28;20020;-63
2021/05/07 10:17:51;;;;;;;4.65;2.00;;;29.40;48.50;;;30.24;18.29;101467.84;5072559;28;20068;-62
2021/05/07 10:20:29;;;;;;;4.90;1.73;;;29.50;48.50;;;29.41;18.63;101480.31;5072796;28;20501;-64
2021/05/07 10:22:56;;;;;;;2.75;2.40;;;29.20;46.80;;;29.08;20.70;101479.53;5073814;28;20090;-62